createdAt,value
2023-02-03T00:02:23.507Z,1.96
2023-02-03T00:04:49.802Z,1.95
2023-02-03T00:07:16.767Z,1.95
2023-02-03T00:09:43.364Z,1.98
2023-02-03T00:12:10.166Z,2.04
2023-02-03T00:14:36.448Z,2.07
2023-02-03T00:17:02.968Z,2.10
2023-02-03T00:19:29.484Z,2.12
2023-02-03T00:21:56.123Z,2.12
2023-02-03T00:24:22.411Z,2.14
2023-02-03T00:26:48.825Z,2.18
2023-02-03T00:29:16.160Z,2.17
2023-02-03T00:31:42.556Z,2.17
2023-02-03T00:34:08.883Z,2.17
2023-02-03T00:36:35.178Z,2.16
2023-02-03T00:39:01.520Z,2.17
2023-02-03T00:41:27.841Z,2.19
2023-02-03T00:43:55.155Z,2.20
2023-02-03T00:46:22.380Z,2.17
2023-02-03T00:48:48.677Z,2.16
2023-02-03T00:51:14.969Z,2.20
2023-02-03T00:53:41.315Z,2.25
2023-02-03T00:56:07.907Z,2.29
2023-02-03T00:58:34.189Z,2.22
2023-02-03T01:01:00.569Z,2.23
2023-02-03T01:03:26.969Z,2.22
2023-02-03T01:05:53.293Z,2.18
2023-02-03T01:08:19.948Z,2.14
2023-02-03T01:10:48.693Z,2.14
2023-02-03T01:13:17.274Z,2.16
2023-02-03T01:15:44.153Z,2.21
2023-02-03T01:18:10.517Z,2.23
2023-02-03T01:20:36.843Z,2.24
2023-02-03T01:23:03.383Z,2.24
2023-02-03T01:25:31.780Z,2.28
2023-02-03T01:27:59.174Z,2.31
2023-02-03T01:30:25.921Z,2.31
2023-02-03T01:32:52.816Z,2.34
2023-02-03T01:35:20.314Z,2.38
2023-02-03T01:37:46.600Z,2.42
2023-02-03T01:40:13.046Z,2.46
2023-02-03T01:42:41.650Z,2.50
2023-02-03T01:45:07.936Z,2.56
2023-02-03T01:47:34.571Z,2.60
2023-02-03T01:50:00.879Z,2.65
2023-02-03T01:52:27.352Z,2.69
2023-02-03T01:54:53.807Z,2.70
2023-02-03T01:57:20.091Z,2.73
2023-02-03T01:59:46.398Z,2.71
2023-02-03T02:02:12.705Z,2.73
2023-02-03T02:04:39.424Z,2.76
2023-02-03T02:07:05.720Z,2.77
2023-02-03T02:09:33.268Z,2.78
2023-02-03T02:11:59.591Z,2.81
2023-02-03T02:14:27.181Z,2.81
2023-02-03T02:16:53.564Z,2.81
2023-02-03T02:19:19.840Z,2.84
2023-02-03T02:21:46.113Z,2.86
2023-02-03T02:24:13.839Z,2.88
2023-02-03T02:26:40.350Z,2.85
2023-02-03T02:29:06.654Z,2.81
2023-02-03T02:31:33.153Z,2.80
2023-02-03T02:34:02.587Z,2.81
2023-02-03T02:36:29.669Z,2.81
2023-02-03T02:38:55.951Z,2.80
2023-02-03T02:41:22.496Z,2.82
2023-02-03T02:43:48.930Z,2.83
2023-02-03T02:46:15.401Z,2.81
2023-02-03T02:48:41.737Z,2.81
2023-02-03T02:51:08.027Z,2.82
2023-02-03T02:53:34.343Z,2.81
2023-02-03T02:56:00.625Z,2.80
2023-02-03T02:58:26.928Z,2.77
2023-02-03T03:00:53.206Z,2.76
2023-02-03T03:03:19.577Z,2.79
2023-02-03T03:05:46.175Z,2.79
2023-02-03T03:08:13.734Z,2.78
2023-02-03T03:10:40.539Z,2.79
2023-02-03T03:13:07.194Z,2.81
2023-02-03T03:15:33.539Z,2.79
2023-02-03T03:17:59.876Z,2.79
2023-02-03T03:20:26.633Z,2.79
2023-02-03T03:22:53.358Z,2.79
2023-02-03T03:25:19.646Z,2.80
2023-02-03T03:27:46.018Z,2.84
2023-02-03T03:30:12.560Z,2.85
2023-02-03T03:32:41.185Z,2.70
2023-02-03T03:35:07.483Z,2.67
2023-02-03T03:37:34.826Z,2.64
2023-02-03T03:40:01.141Z,2.63
2023-02-03T03:42:28.401Z,2.65
2023-02-03T03:44:55.929Z,2.65
2023-02-03T03:47:23.262Z,2.67
2023-02-03T03:49:50.839Z,2.70
2023-02-03T03:52:24.407Z,2.71
2023-02-03T03:54:50.695Z,2.71
2023-02-03T03:57:17.083Z,2.66
2023-02-03T03:59:43.566Z,2.66
2023-02-03T04:02:09.967Z,2.66
2023-02-03T04:04:38.913Z,2.69
2023-02-03T04:07:05.203Z,2.71
2023-02-03T04:09:31.739Z,2.76
2023-02-03T04:11:58.072Z,2.81
2023-02-03T04:14:24.351Z,2.76
2023-02-03T04:16:50.997Z,2.76
2023-02-03T04:19:17.772Z,2.79
2023-02-03T04:21:44.129Z,2.75
2023-02-03T04:24:10.419Z,2.76
2023-02-03T04:26:37.737Z,2.74
2023-02-03T04:29:04.110Z,2.80
2023-02-03T04:31:30.708Z,2.84
2023-02-03T04:33:57.099Z,2.89
2023-02-03T04:36:23.391Z,2.88
2023-02-03T04:38:49.699Z,2.80
2023-02-03T04:41:18.357Z,2.82
2023-02-03T04:43:44.710Z,2.87
2023-02-03T04:46:11.071Z,2.87
2023-02-03T04:48:37.496Z,2.77
2023-02-03T04:51:03.788Z,2.85
2023-02-03T04:53:30.095Z,2.88
2023-02-03T04:55:56.377Z,2.89
2023-02-03T04:58:22.951Z,2.90
2023-02-03T05:00:49.311Z,2.92
2023-02-03T05:03:15.716Z,2.87
2023-02-03T05:05:42.054Z,2.89
2023-02-03T05:08:08.401Z,2.90
2023-02-03T05:10:34.756Z,2.93
2023-02-03T05:13:01.268Z,2.90
2023-02-03T05:15:27.746Z,2.81
2023-02-03T05:17:54.119Z,2.78
2023-02-03T05:20:20.497Z,2.75
2023-02-03T05:22:48.043Z,2.74
2023-02-03T05:25:14.330Z,2.69
2023-02-03T05:27:40.797Z,2.64
2023-02-03T05:30:07.112Z,2.68
2023-02-03T05:35:15.083Z,2.47
2023-02-03T05:37:41.775Z,2.41
2023-02-03T05:40:10.194Z,2.35
2023-02-03T05:42:36.692Z,2.26
2023-02-03T05:45:02.992Z,2.18
2023-02-03T05:47:36.448Z,2.03
2023-02-03T05:50:04.505Z,1.91
2023-02-03T05:52:31.091Z,1.93
2023-02-03T05:54:57.363Z,1.92
2023-02-03T05:57:26.073Z,1.85
2023-02-03T06:02:32.595Z,1.75
2023-02-03T06:04:58.885Z,1.68
2023-02-03T06:07:25.376Z,1.71
2023-02-03T06:09:54.034Z,1.74
2023-02-03T06:12:21.379Z,1.73
2023-02-03T06:14:47.685Z,1.71
2023-02-03T06:17:14.987Z,1.70
2023-02-03T06:19:42.227Z,1.62
2023-02-03T06:22:08.694Z,1.42
2023-02-03T06:24:35.303Z,1.44
2023-02-03T06:27:01.756Z,1.45
2023-02-03T06:29:28.071Z,1.37
2023-02-03T06:31:56.612Z,1.36
2023-02-03T06:34:23.075Z,1.38
2023-02-03T06:36:49.401Z,1.38
2023-02-03T06:39:15.845Z,1.34
2023-02-03T06:41:44.599Z,1.31
2023-02-03T06:44:11.920Z,1.26
2023-02-03T06:46:38.287Z,1.21
2023-02-03T06:49:04.789Z,1.18
2023-02-03T06:51:31.112Z,1.17
2023-02-03T06:53:57.414Z,1.17
2023-02-03T06:56:24.323Z,1.17
2023-02-03T06:58:57.924Z,1.14
2023-02-03T07:01:24.519Z,1.09
2023-02-03T07:03:50.854Z,1.03
2023-02-03T07:06:17.146Z,0.96
2023-02-03T07:08:43.459Z,0.92
2023-02-03T07:11:09.778Z,0.89
2023-02-03T07:13:36.061Z,0.88
2023-02-03T07:16:02.425Z,0.88
2023-02-03T07:18:46.439Z,0.93
2023-02-03T07:21:13.433Z,0.95
2023-02-03T07:23:39.721Z,0.92
2023-02-03T07:26:06.048Z,0.90
2023-02-03T07:28:32.348Z,0.85
2023-02-03T07:30:58.758Z,0.82
2023-02-03T07:33:25.959Z,0.83
2023-02-03T07:35:53.356Z,0.83
2023-02-03T07:38:27.210Z,0.95
2023-02-03T07:40:56.276Z,1.03
2023-02-03T07:43:22.576Z,1.08
2023-02-03T07:45:51.212Z,1.17
2023-02-03T07:48:17.569Z,1.15
2023-02-03T07:50:43.859Z,1.18
2023-02-03T07:53:10.389Z,1.18
2023-02-03T07:55:36.715Z,1.25
2023-02-03T07:58:03.464Z,1.51
2023-02-03T08:00:32.095Z,1.54
2023-02-03T08:02:58.412Z,1.57
2023-02-03T08:05:24.987Z,1.57
2023-02-03T08:07:51.297Z,1.59
2023-02-03T08:10:17.626Z,1.62
2023-02-03T08:12:45.224Z,1.68
2023-02-03T08:15:11.635Z,1.70
2023-02-03T08:17:38.007Z,1.73
2023-02-03T08:20:05.526Z,1.79
2023-02-03T08:22:34.164Z,1.82
2023-02-03T08:25:00.454Z,1.83
2023-02-03T08:27:26.979Z,1.85
2023-02-03T08:29:53.580Z,1.87
2023-02-03T08:32:20.073Z,1.96
2023-02-03T08:34:46.490Z,2.16
2023-02-03T08:37:12.795Z,2.24
2023-02-03T08:39:39.506Z,2.39
2023-02-03T08:42:05.866Z,2.47
2023-02-03T08:44:33.258Z,2.54
2023-02-03T08:46:59.597Z,2.62
2023-02-03T08:49:26.167Z,2.80
2023-02-03T08:51:52.557Z,2.83
2023-02-03T08:54:18.906Z,3.00
2023-02-03T08:56:47.458Z,3.02
2023-02-03T08:59:13.800Z,3.15
2023-02-03T09:01:40.154Z,3.26
2023-02-03T09:04:06.551Z,3.37
2023-02-03T09:06:32.905Z,3.52
2023-02-03T09:08:59.378Z,3.66
2023-02-03T09:11:25.755Z,3.83
2023-02-03T09:13:52.331Z,3.87
2023-02-03T09:16:18.769Z,4.03
2023-02-03T09:18:45.379Z,4.16
2023-02-03T09:21:13.972Z,4.32
2023-02-03T09:23:47.341Z,4.53
2023-02-03T09:26:13.690Z,4.70
2023-02-03T09:28:40.506Z,4.82
2023-02-03T09:31:06.913Z,4.88
2023-02-03T09:33:33.688Z,5.02
2023-02-03T09:36:00.293Z,5.06
2023-02-03T09:38:26.926Z,5.13
2023-02-03T09:41:09.366Z,5.26
2023-02-03T09:43:38.509Z,5.47
2023-02-03T09:46:06.358Z,5.63
2023-02-03T09:48:32.818Z,5.81
2023-02-03T09:51:03.273Z,6.03
2023-02-03T09:53:30.171Z,6.21
2023-02-03T09:55:56.827Z,6.24
2023-02-03T09:58:23.663Z,6.40
2023-02-03T10:00:51.064Z,6.39
2023-02-03T10:03:17.480Z,6.51
2023-02-03T10:05:43.860Z,6.52
2023-02-03T10:08:10.195Z,6.61
2023-02-03T10:42:58.784Z,6.61
2023-02-03T10:45:25.252Z,6.89
2023-02-03T10:47:51.637Z,7.13
2023-02-03T10:50:17.998Z,7.38
2023-02-03T10:52:44.330Z,7.59
2023-02-03T10:55:12.687Z,7.64
2023-02-03T10:57:39.991Z,7.87
2023-02-03T11:00:06.385Z,7.87
2023-02-03T11:02:32.833Z,7.70
2023-02-03T11:04:59.176Z,7.61
2023-02-03T11:07:25.515Z,7.52
2023-02-03T11:09:51.920Z,7.23
2023-02-03T11:12:18.318Z,7.38
2023-02-03T11:14:44.713Z,7.51
2023-02-03T11:17:12.119Z,7.60
2023-02-03T11:19:38.460Z,7.37
2023-02-03T11:22:04.844Z,7.41
2023-02-03T11:24:31.229Z,7.57
2023-02-03T11:26:57.583Z,7.66
2023-02-03T11:29:24.060Z,7.83
2023-02-03T11:31:50.537Z,7.92
2023-02-03T11:34:16.975Z,7.95
2023-02-03T11:36:43.333Z,8.08
2023-02-03T11:39:09.730Z,8.14
2023-02-03T11:41:36.121Z,8.17
2023-02-03T11:44:02.780Z,8.25
2023-02-03T11:46:29.180Z,8.37
2023-02-03T11:49:04.890Z,8.44
2023-02-03T11:51:40.890Z,8.36
2023-02-03T11:54:07.271Z,8.49
2023-02-03T11:56:33.647Z,8.43
2023-02-03T11:58:59.985Z,8.30
2023-02-03T12:01:26.532Z,8.44
2023-02-03T12:03:55.555Z,8.50
2023-02-03T12:06:22.467Z,8.57
2023-02-03T12:08:51.705Z,8.57
2023-02-03T12:11:18.098Z,8.61
2023-02-03T12:13:46.885Z,8.60
2023-02-03T12:16:13.332Z,8.60
2023-02-03T12:18:39.733Z,8.60
2023-02-03T12:21:06.517Z,8.67
2023-02-03T12:23:33.920Z,8.78
2023-02-03T12:26:00.571Z,8.85
2023-02-03T12:28:33.314Z,8.85
2023-02-03T12:31:00.744Z,8.65
2023-02-03T12:33:27.129Z,8.63
2023-02-03T12:35:53.640Z,8.70
2023-02-03T12:38:20.173Z,8.74
2023-02-03T12:40:48.948Z,8.65
2023-02-03T12:43:15.689Z,8.75
2023-02-03T12:45:44.590Z,8.83
2023-02-03T12:48:11.608Z,8.83
2023-02-03T12:50:38.057Z,8.97
2023-02-03T12:53:06.385Z,9.04
2023-02-03T12:55:32.741Z,9.11
2023-02-03T12:57:59.296Z,9.14
2023-02-03T13:00:26.411Z,9.05
2023-02-03T13:02:53.906Z,9.00
2023-02-03T13:05:20.659Z,9.08
2023-02-03T13:07:47.032Z,9.19
2023-02-03T13:10:13.380Z,9.23
2023-02-03T13:12:39.753Z,9.28
2023-02-03T13:15:06.083Z,9.38
2023-02-03T13:17:32.468Z,9.46
2023-02-03T13:19:58.866Z,9.40
2023-02-03T13:22:25.212Z,9.50
2023-02-03T13:24:51.648Z,9.55
2023-02-03T13:27:18.447Z,9.54
2023-02-03T13:29:47.186Z,9.65
2023-02-03T13:32:16.392Z,9.63
2023-02-03T13:34:42.805Z,9.64
2023-02-03T13:37:09.386Z,9.60
2023-02-03T13:39:35.771Z,9.74
2023-02-03T13:42:02.156Z,9.79
2023-02-03T13:44:28.727Z,9.86
2023-02-03T13:46:55.118Z,9.88
2023-02-03T13:49:21.791Z,9.88
2023-02-03T13:51:48.122Z,9.93
2023-02-03T13:54:14.451Z,9.97
2023-02-03T13:56:42.919Z,9.95
2023-02-03T13:59:09.525Z,9.98
2023-02-03T14:01:35.899Z,10.05
2023-02-03T14:04:02.438Z,10.13
2023-02-03T14:06:29.460Z,10.16
2023-02-03T14:08:55.862Z,10.25
2023-02-03T14:11:22.249Z,10.25
2023-02-03T14:13:51.783Z,10.25
2023-02-03T14:16:18.307Z,10.30
2023-02-03T14:18:44.726Z,10.31
2023-02-03T14:21:11.129Z,10.24
2023-02-03T14:23:37.612Z,10.28
2023-02-03T14:26:04.312Z,10.36
2023-02-03T14:28:30.739Z,10.36
2023-02-03T14:30:59.897Z,10.34
2023-02-03T14:33:28.644Z,10.35
2023-02-03T14:35:55.045Z,10.26
2023-02-03T14:38:21.419Z,10.25
2023-02-03T14:40:48.186Z,10.14
2023-02-03T14:43:14.600Z,10.18
2023-02-03T14:45:42.073Z,10.20
2023-02-03T14:48:08.428Z,10.21
2023-02-03T14:50:34.780Z,10.12
2023-02-03T14:53:01.331Z,10.06
2023-02-03T14:55:28.047Z,9.98
2023-02-03T14:57:54.795Z,9.80
2023-02-03T15:00:21.138Z,9.71
2023-02-03T15:02:47.495Z,9.69
2023-02-03T15:05:14.264Z,9.63
2023-02-03T15:07:40.938Z,9.46
2023-02-03T15:10:07.349Z,9.35
2023-02-03T15:12:34.734Z,9.34
2023-02-03T15:15:01.154Z,9.32
2023-02-03T15:17:29.795Z,9.24
2023-02-03T15:19:56.181Z,9.19
2023-02-03T15:22:22.827Z,9.18
2023-02-03T15:24:49.215Z,9.22
2023-02-03T15:27:17.942Z,9.11
2023-02-03T15:29:44.433Z,9.06
2023-02-03T15:32:10.939Z,9.02
2023-02-03T15:34:37.496Z,9.00
2023-02-03T15:37:09.181Z,8.95
2023-02-03T15:39:37.067Z,8.86
2023-02-03T15:42:05.247Z,8.78
2023-02-03T15:44:32.371Z,8.70
2023-02-03T15:46:59.213Z,8.61
2023-02-03T15:49:26.196Z,8.57
2023-02-03T15:51:52.626Z,8.47
2023-02-03T15:54:19.319Z,8.44
2023-02-03T15:56:45.668Z,8.39
2023-02-03T15:59:12.002Z,8.37
2023-02-03T16:01:38.768Z,8.34
2023-02-03T16:04:05.173Z,8.30
2023-02-03T16:06:31.905Z,8.27
2023-02-03T16:08:58.704Z,8.22
2023-02-03T16:11:25.088Z,8.15
2023-02-03T16:13:51.600Z,8.09
2023-02-03T16:16:17.955Z,7.97
2023-02-03T16:18:44.408Z,7.82
2023-02-03T16:21:10.799Z,7.69
2023-02-03T16:23:37.206Z,7.54
2023-02-03T16:26:03.592Z,7.45
2023-02-03T16:28:32.707Z,7.37
2023-02-03T16:30:59.308Z,7.29
2023-02-03T16:33:26.652Z,7.22
2023-02-03T16:35:53.003Z,7.15
2023-02-03T16:38:19.400Z,7.16
2023-02-03T16:40:45.988Z,7.13
2023-02-03T16:43:12.481Z,7.07
2023-02-03T16:45:38.877Z,7.01
2023-02-03T16:48:06.293Z,7.01
2023-02-03T16:50:38.828Z,6.98
2023-02-03T16:53:06.884Z,6.93
2023-02-03T16:55:33.380Z,6.87
2023-02-03T16:58:00.022Z,6.80
2023-02-03T17:00:26.366Z,6.72
2023-02-03T17:02:53.569Z,6.60
2023-02-03T17:05:20.046Z,6.57
2023-02-03T17:07:47.728Z,6.54
2023-02-03T17:10:14.126Z,6.56
2023-02-03T17:12:40.496Z,6.50
2023-02-03T17:15:07.179Z,6.55
2023-02-03T17:17:36.085Z,6.52
2023-02-03T17:20:02.842Z,6.35
2023-02-03T17:22:29.255Z,6.39
2023-02-03T17:24:57.708Z,6.38
2023-02-03T17:27:25.323Z,6.36
2023-02-03T17:29:51.707Z,6.34
2023-02-03T17:32:18.781Z,6.35
2023-02-03T17:34:45.131Z,6.27
2023-02-03T17:37:13.629Z,6.26
2023-02-03T17:53:21.031Z,6.06
2023-02-03T17:58:17.554Z,6.00
2023-02-03T18:00:45.256Z,6.00
2023-02-03T18:03:12.279Z,5.95
2023-02-03T18:05:40.132Z,5.94
2023-02-03T18:08:12.408Z,5.94
2023-02-03T18:10:43.426Z,5.92
2023-02-03T18:13:09.831Z,5.88
2023-02-03T18:15:38.286Z,5.82
2023-02-03T18:18:04.724Z,5.82
2023-02-03T18:20:31.346Z,5.77
2023-02-03T18:22:57.870Z,5.45
2023-02-03T18:25:24.248Z,5.49
2023-02-03T18:27:50.863Z,5.45
2023-02-03T18:30:17.462Z,5.40
2023-02-03T18:32:43.859Z,5.39
2023-02-03T18:35:10.538Z,5.37
2023-02-03T18:37:37.132Z,5.30
2023-02-03T18:40:03.516Z,5.30
2023-02-03T18:42:30.174Z,5.29
2023-02-03T18:44:56.686Z,5.27
2023-02-03T18:47:23.181Z,5.24
2023-02-03T18:49:49.709Z,5.23
2023-02-03T18:52:16.060Z,5.19
2023-02-03T18:54:42.684Z,5.14
2023-02-03T18:57:09.248Z,5.09
2023-02-03T18:59:37.894Z,5.06
2023-02-03T19:02:04.453Z,5.03
2023-02-03T19:04:30.801Z,5.01
2023-02-03T19:06:59.651Z,4.99
2023-02-03T19:09:26.052Z,4.99
2023-02-03T19:11:54.786Z,4.98
2023-02-03T19:14:21.174Z,4.97
2023-02-03T19:16:47.626Z,4.94
2023-02-03T19:19:14.110Z,4.93
2023-02-03T19:21:41.535Z,4.91
2023-02-03T19:24:08.294Z,4.87
2023-02-03T19:26:35.117Z,4.84
2023-02-03T19:29:01.600Z,4.82
2023-02-03T19:31:29.002Z,4.74
2023-02-03T19:33:55.669Z,4.72
2023-02-03T19:36:24.077Z,4.58
2023-02-03T19:38:52.523Z,4.48
2023-02-03T19:41:20.967Z,4.40
2023-02-03T19:43:47.856Z,4.30
2023-02-03T19:46:14.243Z,4.24
2023-02-03T19:48:44.775Z,4.21
2023-02-03T19:51:11.375Z,4.11
2023-02-03T19:53:37.728Z,4.10
2023-02-03T19:56:04.466Z,4.09
2023-02-03T19:58:32.211Z,4.02
2023-02-03T20:00:58.823Z,3.99
2023-02-03T20:03:28.084Z,3.97
2023-02-03T20:05:54.540Z,4.00
2023-02-03T20:08:21.156Z,3.91
2023-02-03T20:10:47.521Z,3.79
2023-02-03T20:13:14.210Z,3.83
2023-02-03T20:15:40.825Z,3.93
2023-02-03T20:18:07.698Z,3.98
2023-02-03T20:20:34.485Z,4.01
2023-02-03T20:23:01.221Z,4.05
2023-02-03T20:25:27.778Z,4.09
2023-02-03T20:28:00.280Z,4.11
2023-02-03T20:30:26.769Z,4.10
2023-02-03T20:32:53.507Z,4.01
2023-02-03T20:35:19.904Z,3.79
2023-02-03T20:37:46.344Z,3.71
2023-02-03T20:40:14.664Z,3.72
2023-02-03T20:42:41.056Z,3.64
2023-02-03T20:45:08.490Z,3.64
2023-02-03T20:47:34.988Z,3.63
2023-02-03T20:50:01.793Z,3.73
2023-02-03T20:52:28.490Z,3.81
2023-02-03T20:54:55.255Z,3.83
2023-02-03T20:57:21.622Z,3.77
2023-02-03T20:59:48.302Z,3.86
2023-02-03T21:02:14.653Z,3.88
2023-02-03T21:04:41.056Z,3.91
2023-02-03T21:07:07.449Z,3.92
2023-02-03T21:09:33.837Z,3.94
2023-02-03T21:12:00.541Z,3.96
2023-02-03T21:14:26.943Z,4.03
2023-02-03T21:16:53.319Z,3.93
2023-02-03T21:19:20.786Z,3.79
2023-02-03T21:21:51.466Z,3.67
2023-02-03T21:24:17.953Z,3.58
2023-02-03T21:26:44.339Z,3.47
2023-02-03T21:29:13.187Z,3.41
2023-02-03T21:31:39.633Z,3.39
2023-02-03T21:34:05.982Z,3.37
2023-02-03T21:36:32.473Z,3.33
2023-02-03T21:38:58.886Z,3.28
2023-02-03T21:41:32.440Z,3.24
2023-02-03T21:44:00.901Z,3.16
2023-02-03T21:46:27.393Z,3.07
2023-02-03T21:48:54.961Z,3.03
2023-02-03T21:51:21.795Z,3.13
2023-02-03T21:53:50.212Z,3.05
2023-02-03T21:56:16.590Z,2.94
2023-02-03T21:58:43.014Z,2.88
2023-02-03T22:01:09.447Z,2.85
2023-02-03T22:03:36.085Z,2.82
2023-02-03T22:06:02.670Z,2.77
2023-02-03T22:08:29.024Z,2.70
2023-02-03T22:10:55.533Z,2.66
2023-02-03T22:13:24.409Z,2.51
2023-02-03T22:15:51.872Z,2.44
2023-02-03T22:18:18.221Z,2.43
2023-02-03T22:20:44.595Z,2.40
2023-02-03T22:23:11.300Z,2.41
2023-02-03T22:25:37.634Z,2.36
2023-02-03T22:28:04.138Z,2.31
2023-02-03T22:30:31.042Z,2.28
2023-02-03T22:32:58.507Z,2.29
2023-02-03T22:35:24.910Z,2.24
2023-02-03T22:37:51.426Z,2.18
2023-02-03T22:40:17.805Z,2.17
2023-02-03T22:42:44.176Z,2.16
2023-02-03T22:45:10.760Z,2.15
2023-02-03T22:47:37.575Z,2.16
2023-02-03T22:50:04.395Z,2.16
2023-02-03T22:52:33.904Z,2.20
2023-02-03T22:55:00.644Z,2.15
2023-02-03T22:57:27.374Z,2.15
2023-02-03T22:59:56.115Z,2.10
2023-02-03T23:02:22.540Z,2.07
2023-02-03T23:04:48.939Z,2.06
2023-02-03T23:07:15.431Z,2.05
2023-02-03T23:09:41.830Z,2.06
2023-02-03T23:12:08.415Z,1.97
2023-02-03T23:14:38.506Z,1.87
2023-02-03T23:17:04.986Z,1.84
2023-02-03T23:19:31.391Z,1.79
2023-02-03T23:21:58.114Z,1.77
2023-02-03T23:24:24.490Z,1.77
2023-02-03T23:26:53.906Z,1.65
2023-02-03T23:29:20.238Z,1.60
2023-02-03T23:31:46.653Z,1.59
2023-02-03T23:34:13.039Z,1.57
2023-02-03T23:36:39.590Z,1.56
2023-02-03T23:39:05.982Z,1.54
2023-02-03T23:41:32.407Z,1.55
2023-02-03T23:43:58.754Z,1.64
2023-02-03T23:46:25.240Z,1.65
2023-02-03T23:48:51.627Z,1.62
2023-02-03T23:51:17.972Z,1.60
2023-02-03T23:53:44.579Z,1.56
2023-02-03T23:56:10.973Z,1.57
2023-02-03T23:58:37.584Z,1.40
